createdAt,value
2023-03-06T00:00:33.622Z,27.67
2023-03-06T00:03:04.432Z,29.17
2023-03-06T00:05:35.175Z,32.10
2023-03-06T00:08:05.645Z,26.17
2023-03-06T00:10:38.673Z,25.40
2023-03-06T00:13:13.619Z,37.70
2023-03-06T00:15:44.333Z,29.17
2023-03-06T00:18:14.806Z,25.50
2023-03-06T00:20:47.022Z,31.23
2023-03-06T00:23:17.416Z,27.27
2023-03-06T00:25:50.782Z,31.70
2023-03-06T00:28:20.940Z,38.50
2023-03-06T00:30:51.250Z,31.70
2023-03-06T00:33:21.421Z,26.20
2023-03-06T00:35:51.657Z,34.67
2023-03-06T00:38:21.906Z,32.80
2023-03-06T00:40:55.661Z,31.43
2023-03-06T00:43:25.664Z,27.33
2023-03-06T00:45:55.805Z,39.80
2023-03-06T00:48:26.018Z,31.83
2023-03-06T00:50:56.247Z,30.30
2023-03-06T00:53:26.794Z,35.77
2023-03-06T00:55:59.668Z,38.73
2023-03-06T00:58:30.004Z,32.77
2023-03-06T01:01:00.420Z,33.93
2023-03-06T01:03:30.542Z,41.80
2023-03-06T01:06:01.242Z,35.13
2023-03-06T01:08:31.440Z,37.37
2023-03-06T01:11:04.489Z,40.70
2023-03-06T01:13:34.822Z,30.47
2023-03-06T01:16:14.002Z,40.20
2023-03-06T01:18:44.960Z,32.43
2023-03-06T01:21:16.073Z,41.97
2023-03-06T01:23:47.825Z,42.30
2023-03-06T01:26:20.767Z,43.70
2023-03-06T01:28:51.060Z,37.67
2023-03-06T01:31:21.281Z,32.70
2023-03-06T01:33:51.363Z,38.40
2023-03-06T01:36:21.937Z,45.87
2023-03-06T01:38:52.170Z,32.17
2023-03-06T01:41:25.228Z,33.53
2023-03-06T01:43:55.360Z,32.53
2023-03-06T01:46:42.373Z,35.20
2023-03-06T01:49:21.532Z,44.53
2023-03-06T01:51:57.941Z,34.63
2023-03-06T01:54:34.191Z,36.70
2023-03-06T01:57:12.310Z,32.40
2023-03-06T01:59:45.299Z,38.63
2023-03-06T02:02:18.496Z,31.30
2023-03-06T02:04:50.124Z,34.93
2023-03-06T02:07:24.799Z,38.17
2023-03-06T02:09:55.331Z,34.50
2023-03-06T02:12:31.536Z,36.73
2023-03-06T02:15:02.166Z,31.73
2023-03-06T02:17:32.871Z,33.37
2023-03-06T02:20:13.279Z,35.30
2023-03-06T02:22:52.881Z,36.60
2023-03-06T02:25:37.594Z,32.60
2023-03-06T02:28:09.882Z,29.30
2023-03-06T02:30:41.279Z,32.50
2023-03-06T02:33:14.445Z,29.53
2023-03-06T02:35:52.554Z,33.70
2023-03-06T02:38:29.891Z,33.90
2023-03-06T02:41:06.803Z,30.37
2023-03-06T02:43:42.590Z,33.40
2023-03-06T02:46:13.387Z,40.17
2023-03-06T02:48:43.854Z,32.20
2023-03-06T02:51:14.060Z,31.03
2023-03-06T02:53:44.242Z,37.03
2023-03-06T02:56:17.853Z,30.20
2023-03-06T02:58:48.223Z,30.87
2023-03-06T03:01:18.373Z,33.40
2023-03-06T03:03:48.639Z,34.33
2023-03-06T03:06:19.114Z,32.63
2023-03-06T03:08:49.392Z,31.80
2023-03-06T03:11:22.706Z,31.07
2023-03-06T03:13:52.853Z,29.43
2023-03-06T03:16:27.129Z,38.97
2023-03-06T03:19:01.177Z,37.37
2023-03-06T03:21:31.986Z,30.70
2023-03-06T03:24:02.556Z,36.33
2023-03-06T03:26:35.390Z,38.17
2023-03-06T03:29:11.535Z,45.00
2023-03-06T03:31:41.743Z,28.30
2023-03-06T03:34:12.043Z,37.20
2023-03-06T03:36:43.690Z,37.83
2023-03-06T03:39:15.566Z,31.50
2023-03-06T03:41:49.433Z,31.40
2023-03-06T03:44:20.113Z,43.87
2023-03-06T03:46:51.665Z,36.40
2023-03-06T03:49:25.462Z,36.80
2023-03-06T03:51:56.598Z,30.70
2023-03-06T03:54:29.247Z,37.40
2023-03-06T03:57:02.609Z,40.40
2023-03-06T03:59:36.917Z,40.53
2023-03-06T04:02:24.390Z,29.00
2023-03-06T04:05:18.502Z,38.43
2023-03-06T04:07:49.892Z,36.30
2023-03-06T04:10:20.548Z,31.73
2023-03-06T04:12:53.416Z,37.20
2023-03-06T04:15:23.995Z,37.93
2023-03-06T04:17:54.177Z,30.63
2023-03-06T04:20:28.449Z,32.27
2023-03-06T04:23:00.017Z,33.20
2023-03-06T04:25:30.441Z,36.27
2023-03-06T04:28:05.328Z,34.97
2023-03-06T04:30:36.467Z,34.20
2023-03-06T04:33:07.706Z,34.27
2023-03-06T04:35:38.676Z,43.20
2023-03-06T04:38:14.431Z,32.80
2023-03-06T04:40:45.080Z,34.20
2023-03-06T04:43:18.077Z,35.40
2023-03-06T04:45:48.342Z,40.13
2023-03-06T04:48:21.391Z,39.03
2023-03-06T04:50:51.752Z,37.67
2023-03-06T04:53:22.181Z,36.47
2023-03-06T04:55:52.678Z,31.23
2023-03-06T04:58:25.708Z,34.10
2023-03-06T05:00:55.780Z,39.33
2023-03-06T05:03:26.320Z,36.60
2023-03-06T05:05:56.455Z,37.13
2023-03-06T05:08:26.685Z,33.77
2023-03-06T05:11:00.148Z,36.60
2023-03-06T05:13:32.936Z,37.63
2023-03-06T05:16:05.669Z,32.97
2023-03-06T05:18:37.233Z,39.03
2023-03-06T05:21:08.543Z,30.90
2023-03-06T05:23:41.597Z,34.83
2023-03-06T05:26:12.996Z,32.13
2023-03-06T05:28:45.876Z,27.57
2023-03-06T05:31:16.013Z,32.13
2023-03-06T05:33:46.206Z,32.00
2023-03-06T05:36:16.381Z,32.23
2023-03-06T05:38:46.557Z,38.87
2023-03-06T05:41:17.179Z,34.57
2023-03-06T05:43:50.075Z,30.23
2023-03-06T05:46:20.325Z,31.13
2023-03-06T05:48:52.473Z,33.93
2023-03-06T05:51:22.692Z,36.07
2023-03-06T05:53:53.498Z,46.27
2023-03-06T05:56:23.854Z,39.30
2023-03-06T05:58:56.791Z,37.93
2023-03-06T06:01:28.516Z,35.20
2023-03-06T06:03:58.997Z,33.47
2023-03-06T06:06:29.142Z,35.80
2023-03-06T06:08:59.374Z,30.90
2023-03-06T06:11:29.627Z,32.07
2023-03-06T06:14:02.745Z,33.10
2023-03-06T06:16:32.989Z,25.50
2023-03-06T06:19:03.172Z,32.90
2023-03-06T06:21:36.121Z,30.47
2023-03-06T06:24:06.330Z,28.50
2023-03-06T06:26:36.393Z,23.03
2023-03-06T06:29:10.184Z,33.60
2023-03-06T06:31:40.782Z,25.13
2023-03-06T06:34:13.693Z,27.63
2023-03-06T06:36:44.307Z,23.40
2023-03-06T06:39:18.398Z,27.87
2023-03-06T06:42:05.510Z,20.97
2023-03-06T06:44:44.266Z,62.07
2023-03-06T06:47:24.103Z,62.90
2023-03-06T06:49:56.249Z,25.70
2023-03-06T06:52:29.053Z,22.43
2023-03-06T06:54:59.583Z,30.67
2023-03-06T06:57:29.723Z,24.07
2023-03-06T07:00:02.306Z,21.83
2023-03-06T07:02:32.346Z,31.03
2023-03-06T07:05:05.153Z,25.73
2023-03-06T07:07:39.351Z,21.30
2023-03-06T07:10:15.879Z,23.17
2023-03-06T07:12:46.881Z,20.87
2023-03-06T07:15:22.287Z,20.73
2023-03-06T07:17:52.296Z,25.43
2023-03-06T07:20:22.979Z,38.83
2023-03-06T07:22:53.018Z,28.90
2023-03-06T07:25:23.978Z,32.83
2023-03-06T07:27:56.030Z,24.37
2023-03-06T07:30:28.798Z,31.07
2023-03-06T07:33:01.522Z,29.97
2023-03-06T07:35:31.842Z,27.03
2023-03-06T07:38:02.350Z,20.23
2023-03-06T07:40:32.428Z,21.30
2023-03-06T07:43:18.429Z,22.90
2023-03-06T07:46:02.821Z,27.40
2023-03-06T07:48:33.588Z,22.93
2023-03-06T07:51:06.108Z,19.50
2023-03-06T07:53:38.135Z,35.03
2023-03-06T07:56:11.663Z,21.27
2023-03-06T07:58:44.607Z,23.43
2023-03-06T08:01:20.361Z,22.50
2023-03-06T08:03:51.279Z,25.80
2023-03-06T08:06:24.376Z,27.03
2023-03-06T08:08:56.944Z,25.60
2023-03-06T08:11:31.112Z,23.50
2023-03-06T08:14:02.262Z,24.30
2023-03-06T08:16:34.877Z,21.20
2023-03-06T08:22:52.882Z,24.73
2023-03-06T08:25:24.736Z,21.60
2023-03-06T08:27:55.194Z,18.60
2023-03-06T08:30:25.696Z,24.37
2023-03-06T08:32:58.559Z,19.87
2023-03-06T08:35:28.941Z,20.90
2023-03-06T08:37:59.633Z,16.90
2023-03-06T08:40:30.618Z,19.13
2023-03-06T08:43:00.794Z,17.27
2023-03-06T08:45:30.890Z,18.00
2023-03-06T08:48:03.609Z,16.90
2023-03-06T08:50:34.027Z,16.30
2023-03-06T08:53:04.277Z,14.93
2023-03-06T08:55:34.252Z,17.10
2023-03-06T08:58:04.429Z,17.20
2023-03-06T09:00:34.865Z,14.63
2023-03-06T09:03:08.915Z,16.40
2023-03-06T09:05:39.565Z,15.37
2023-03-06T09:08:10.223Z,17.67
2023-03-06T09:10:40.523Z,12.93
2023-03-06T09:13:10.533Z,14.00
2023-03-06T09:15:40.611Z,11.20
2023-03-06T09:18:13.335Z,15.70
2023-03-06T09:20:43.369Z,11.77
2023-03-06T09:23:14.080Z,14.60
2023-03-06T09:25:44.336Z,13.10
2023-03-06T09:28:14.512Z,11.93
2023-03-06T09:30:44.707Z,9.03
2023-03-06T09:33:17.843Z,12.00
2023-03-06T09:35:53.854Z,13.67
2023-03-06T09:38:26.997Z,11.13
2023-03-06T09:43:42.606Z,9.77
2023-03-06T09:46:25.665Z,10.17
2023-03-06T09:49:32.304Z,13.13
2023-03-06T09:52:15.219Z,16.90
2023-03-06T09:54:49.174Z,16.33
2023-03-06T09:57:26.551Z,9.07
2023-03-06T10:00:02.908Z,11.23
2023-03-06T10:02:43.901Z,10.53
2023-03-06T10:05:24.491Z,10.30
2023-03-06T10:08:04.490Z,10.00
2023-03-06T10:10:46.653Z,10.53
2023-03-06T10:13:27.303Z,9.30
2023-03-06T10:16:06.398Z,8.50
2023-03-06T10:18:39.108Z,8.83
2023-03-06T10:21:43.833Z,10.20
2023-03-06T10:24:36.085Z,12.43
2023-03-06T10:27:23.841Z,11.97
2023-03-06T10:30:04.759Z,8.13
2023-03-06T10:32:49.576Z,10.80
2023-03-06T10:35:24.401Z,9.10
2023-03-06T10:38:05.139Z,8.90
2023-03-06T10:40:49.246Z,9.83
2023-03-06T10:43:19.413Z,10.83
2023-03-06T10:45:53.300Z,10.50
2023-03-06T10:48:27.174Z,12.53
2023-03-06T10:51:20.308Z,9.63
2023-03-06T10:54:00.401Z,10.37
2023-03-06T10:56:34.225Z,11.10
2023-03-06T10:59:16.691Z,10.80
2023-03-06T11:01:50.107Z,9.93
2023-03-06T11:04:30.533Z,9.33
2023-03-06T11:07:11.834Z,15.50
2023-03-06T11:09:47.811Z,9.87
2023-03-06T11:12:26.790Z,10.10
2023-03-06T11:15:27.811Z,10.57
2023-03-06T11:18:04.513Z,7.87
2023-03-06T11:20:52.062Z,8.53
2023-03-06T11:23:40.576Z,8.10
2023-03-06T11:26:36.387Z,8.73
2023-03-06T11:29:29.415Z,11.60
2023-03-06T11:32:09.820Z,9.70
2023-03-06T11:34:51.073Z,8.17
2023-03-06T11:37:42.428Z,8.90
2023-03-06T11:40:26.873Z,20.57
2023-03-06T11:43:17.415Z,8.60
2023-03-06T11:45:54.318Z,9.57
2023-03-06T11:48:31.508Z,8.77
2023-03-06T11:51:15.170Z,12.37
2023-03-06T11:53:45.520Z,10.10
2023-03-06T11:56:39.126Z,10.63
2023-03-06T11:59:54.063Z,11.03
2023-03-06T12:02:47.326Z,9.27
2023-03-06T12:05:37.572Z,14.80
2023-03-06T12:08:31.472Z,10.63
2023-03-06T12:11:12.816Z,11.73
2023-03-06T12:14:04.313Z,7.83
2023-03-06T12:17:07.561Z,11.57
2023-03-06T12:20:01.843Z,9.70
2023-03-06T12:23:02.557Z,12.67
2023-03-06T12:25:46.356Z,14.37
2023-03-06T12:28:51.533Z,11.83
2023-03-06T12:31:40.841Z,8.70
2023-03-06T12:34:52.303Z,14.00
2023-03-06T12:37:37.612Z,9.83
2023-03-06T12:40:42.743Z,12.10
2023-03-06T12:43:46.229Z,8.60
2023-03-06T12:46:21.585Z,12.30
2023-03-06T12:49:06.105Z,11.00
2023-03-06T12:51:40.889Z,11.70
2023-03-06T12:54:17.138Z,11.37
2023-03-06T12:56:48.084Z,14.47
2023-03-06T12:59:48.352Z,11.50
2023-03-06T13:02:58.196Z,15.70
2023-03-06T13:06:06.436Z,12.30
2023-03-06T13:09:17.943Z,10.90
2023-03-06T13:12:29.002Z,16.40
2023-03-06T13:15:02.712Z,10.93
2023-03-06T13:17:40.488Z,11.33
2023-03-06T13:20:40.501Z,11.80
2023-03-06T13:23:51.822Z,9.23
2023-03-06T13:26:58.171Z,11.03
2023-03-06T13:30:09.139Z,12.70
2023-03-06T13:32:39.582Z,11.40
2023-03-06T13:35:51.630Z,11.27
2023-03-06T13:38:56.317Z,12.63
2023-03-06T13:42:00.865Z,13.20
2023-03-06T13:44:46.086Z,7.70
2023-03-06T13:48:10.703Z,14.90
2023-03-06T13:50:50.893Z,10.70
2023-03-06T13:54:09.544Z,7.83
2023-03-06T13:57:13.056Z,9.90
2023-03-06T14:00:38.546Z,9.00
2023-03-06T14:03:47.678Z,9.90
2023-03-06T14:06:54.111Z,9.97
2023-03-06T14:09:33.819Z,12.63
2023-03-06T14:12:17.621Z,12.70
2023-03-06T14:14:55.098Z,9.77
2023-03-06T14:17:34.197Z,12.63
2023-03-06T14:20:16.152Z,9.53
2023-03-06T14:22:46.460Z,10.73
2023-03-06T14:25:33.073Z,9.53
2023-03-06T14:28:14.029Z,9.67
2023-03-06T14:30:53.177Z,10.50
2023-03-06T14:33:47.389Z,11.87
2023-03-06T14:36:20.977Z,10.20
2023-03-06T14:38:56.019Z,13.30
2023-03-06T14:41:29.799Z,9.50
2023-03-06T14:44:21.592Z,11.50
2023-03-06T14:46:55.144Z,12.60
2023-03-06T14:49:28.416Z,8.10
2023-03-06T14:52:02.635Z,8.70
2023-03-06T14:54:38.180Z,9.57
2023-03-06T14:57:15.391Z,9.17
2023-03-06T14:59:55.874Z,8.80
2023-03-06T15:02:32.904Z,8.73
2023-03-06T15:05:09.025Z,11.53
2023-03-06T15:07:39.235Z,7.50
2023-03-06T15:10:22.465Z,7.90
2023-03-06T15:12:52.995Z,9.50
2023-03-06T15:15:44.352Z,10.70
2023-03-06T15:18:34.045Z,9.20
2023-03-06T15:21:18.774Z,10.90
2023-03-06T15:23:51.374Z,11.90
2023-03-06T15:26:34.548Z,10.20
2023-03-06T15:29:23.965Z,10.70
2023-03-06T15:32:18.849Z,11.50
2023-03-06T15:34:49.188Z,12.20
2023-03-06T15:37:30.948Z,11.50
2023-03-06T15:40:22.332Z,10.43
2023-03-06T15:43:00.344Z,6.33
2023-03-06T15:45:32.174Z,10.10
2023-03-06T15:48:05.607Z,10.60
2023-03-06T15:50:36.047Z,9.13
2023-03-06T15:53:06.733Z,9.83
2023-03-06T15:55:40.543Z,15.80
2023-03-06T15:58:18.133Z,11.50
2023-03-06T16:00:48.400Z,12.90
2023-03-06T16:03:21.948Z,10.33
2023-03-06T16:05:52.120Z,10.93
2023-03-06T16:08:22.309Z,8.60
2023-03-06T16:10:53.257Z,19.50
2023-03-06T16:13:29.980Z,10.43
2023-03-06T16:16:00.135Z,11.63
2023-03-06T16:18:33.050Z,14.93
2023-03-06T16:21:03.104Z,11.77
2023-03-06T16:23:33.121Z,10.83
2023-03-06T16:26:03.395Z,9.87
2023-03-06T16:28:40.908Z,12.60
2023-03-06T16:31:15.105Z,14.37
2023-03-06T16:33:47.773Z,11.10
2023-03-06T16:36:23.499Z,14.27
2023-03-06T16:38:55.141Z,12.63
2023-03-06T16:41:25.470Z,14.67
2023-03-06T16:43:55.495Z,10.17
2023-03-06T16:46:28.061Z,12.07
2023-03-06T16:49:09.599Z,10.60
2023-03-06T16:51:40.552Z,11.80
2023-03-06T16:54:10.697Z,14.47
2023-03-06T16:56:40.887Z,14.50
2023-03-06T16:59:12.184Z,16.63
2023-03-06T17:01:45.365Z,13.00
2023-03-06T17:04:18.033Z,16.33
2023-03-06T17:06:48.236Z,12.67
2023-03-06T17:09:18.376Z,11.30
2023-03-06T17:11:48.437Z,14.00
2023-03-06T17:14:18.539Z,12.57
2023-03-06T17:16:48.740Z,14.00
2023-03-06T17:19:21.770Z,14.23
2023-03-06T17:21:52.038Z,12.77
2023-03-06T17:24:22.112Z,12.60
2023-03-06T17:26:52.625Z,17.63
2023-03-06T17:29:23.021Z,13.03
2023-03-06T17:31:53.110Z,14.30
2023-03-06T17:34:25.841Z,12.83
2023-03-06T17:36:56.478Z,15.00
2023-03-06T17:39:26.839Z,17.30
2023-03-06T17:41:56.987Z,12.63
2023-03-06T17:44:27.148Z,14.63
2023-03-06T17:46:57.137Z,16.33
2023-03-06T17:49:31.184Z,15.87
2023-03-06T17:52:04.485Z,15.23
2023-03-06T17:54:36.324Z,12.00
2023-03-06T17:57:07.011Z,19.17
2023-03-06T17:59:37.393Z,15.83
2023-03-06T18:02:08.568Z,14.43
2023-03-06T18:04:41.598Z,16.30
2023-03-06T18:07:12.554Z,13.23
2023-03-06T18:09:45.982Z,15.77
2023-03-06T18:12:16.217Z,14.27
2023-03-06T18:14:47.860Z,15.97
2023-03-06T18:17:18.310Z,13.70
2023-03-06T18:19:51.166Z,14.13
2023-03-06T18:22:21.320Z,18.50
2023-03-06T18:24:52.125Z,17.77
2023-03-06T18:27:22.449Z,18.93
2023-03-06T18:29:52.729Z,17.87
2023-03-06T18:32:23.056Z,19.13
2023-03-06T18:34:56.001Z,21.13
2023-03-06T18:37:26.628Z,26.47
2023-03-06T18:39:56.908Z,18.73
2023-03-06T18:42:27.188Z,23.47
2023-03-06T18:44:57.594Z,16.10
2023-03-06T18:47:28.118Z,20.20
2023-03-06T18:50:03.015Z,19.97
2023-03-06T18:52:33.070Z,16.77
2023-03-06T18:55:03.731Z,22.87
2023-03-06T18:57:34.203Z,21.37
2023-03-06T19:00:04.832Z,22.50
2023-03-06T19:02:35.082Z,18.83
2023-03-06T19:05:09.983Z,17.20
2023-03-06T19:07:40.327Z,20.83
2023-03-06T19:10:12.956Z,19.20
2023-03-06T19:12:43.130Z,20.07
2023-03-06T19:15:14.000Z,18.23
2023-03-06T19:17:44.286Z,16.70
2023-03-06T19:20:18.327Z,16.80
2023-03-06T19:22:48.291Z,13.40
2023-03-06T19:25:19.058Z,13.67
2023-03-06T19:27:49.473Z,20.53
2023-03-06T19:30:25.582Z,20.67
2023-03-06T19:32:56.565Z,20.93
2023-03-06T19:35:30.802Z,20.20
2023-03-06T19:38:00.938Z,21.27
2023-03-06T19:40:31.949Z,18.27
2023-03-06T19:43:02.162Z,15.60
2023-03-06T19:45:32.330Z,18.37
2023-03-06T19:48:05.485Z,18.33
2023-03-06T19:50:38.251Z,20.63
2023-03-06T19:53:08.506Z,19.37
2023-03-06T19:55:38.854Z,18.27
2023-03-06T19:58:09.127Z,16.90
2023-03-06T20:00:39.833Z,20.83
2023-03-06T20:03:09.879Z,19.17
2023-03-06T20:05:50.011Z,19.20
2023-03-06T20:08:20.803Z,20.40
2023-03-06T20:10:51.766Z,20.40
2023-03-06T20:13:21.891Z,17.23
2023-03-06T20:15:52.066Z,20.43
2023-03-06T20:18:22.125Z,20.90
2023-03-06T20:21:04.690Z,17.47
2023-03-06T20:23:36.760Z,19.30
2023-03-06T20:26:09.634Z,18.23
2023-03-06T20:28:40.520Z,15.67
2023-03-06T20:31:13.446Z,16.07
2023-03-06T20:33:43.557Z,14.87
2023-03-06T20:36:20.037Z,21.90
2023-03-06T20:38:51.153Z,18.60
2023-03-06T20:41:24.802Z,17.67
2023-03-06T20:43:55.520Z,16.50
2023-03-06T20:46:26.527Z,14.20
2023-03-06T20:48:58.327Z,16.00
2023-03-06T20:51:36.099Z,15.80
2023-03-06T20:54:06.612Z,18.30
2023-03-06T20:56:39.924Z,13.93
2023-03-06T20:59:10.740Z,17.47
2023-03-06T21:01:43.710Z,16.50
2023-03-06T21:04:16.724Z,19.40
2023-03-06T21:06:50.190Z,19.10
2023-03-06T21:09:20.691Z,20.10
2023-03-06T21:11:50.957Z,21.37
2023-03-06T21:14:21.139Z,19.83
2023-03-06T21:16:51.278Z,17.00
2023-03-06T21:19:21.511Z,24.27
2023-03-06T21:21:54.448Z,24.50
2023-03-06T21:24:24.566Z,20.27
2023-03-06T21:26:54.606Z,20.80
2023-03-06T21:29:24.600Z,16.90
2023-03-06T21:31:55.084Z,19.33
2023-03-06T21:34:25.596Z,15.13
2023-03-06T21:36:58.285Z,19.27
2023-03-06T21:39:28.265Z,20.70
2023-03-06T21:41:58.452Z,15.87
2023-03-06T21:44:28.536Z,19.40
2023-03-06T21:46:58.561Z,20.27
2023-03-06T21:49:29.703Z,22.93
2023-03-06T21:52:02.575Z,16.67
2023-03-06T21:54:32.824Z,16.60
2023-03-06T21:57:02.894Z,19.80
2023-03-06T21:59:33.253Z,20.80
2023-03-06T22:02:03.535Z,20.63
2023-03-06T22:04:33.910Z,17.57
2023-03-06T22:07:06.604Z,19.60
2023-03-06T22:09:37.746Z,20.63
2023-03-06T22:12:08.504Z,18.07
2023-03-06T22:14:39.007Z,21.17
2023-03-06T22:17:09.042Z,16.10
2023-03-06T22:19:39.181Z,18.87
2023-03-06T22:22:12.025Z,20.63
2023-03-06T22:24:42.198Z,22.30
2023-03-06T22:27:12.384Z,20.03
2023-03-06T22:29:42.507Z,20.87
2023-03-06T22:32:13.014Z,20.57
2023-03-06T22:34:43.112Z,14.33
2023-03-06T22:37:16.269Z,24.53
2023-03-06T22:39:46.436Z,19.50
2023-03-06T22:42:16.568Z,20.63
2023-03-06T22:44:46.951Z,21.60
2023-03-06T22:47:17.083Z,17.77
2023-03-06T22:49:47.739Z,18.63
2023-03-06T22:52:20.386Z,17.77
2023-03-06T22:54:50.369Z,17.63
2023-03-06T22:57:20.529Z,21.10
2023-03-06T22:59:50.569Z,20.30
2023-03-06T23:02:20.611Z,19.70
2023-03-06T23:04:53.994Z,14.70
2023-03-06T23:07:26.972Z,22.67
2023-03-06T23:10:03.868Z,16.27
2023-03-06T23:12:52.824Z,15.37
2023-03-06T23:15:41.716Z,16.40
2023-03-06T23:18:31.552Z,15.73
2023-03-06T23:21:22.830Z,17.67
2023-03-06T23:24:13.670Z,17.27
2023-03-06T23:26:43.690Z,18.47
2023-03-06T23:29:13.860Z,24.57
2023-03-06T23:31:43.984Z,18.07
2023-03-06T23:34:14.683Z,17.73
2023-03-06T23:36:44.661Z,19.77
2023-03-06T23:39:17.749Z,13.33
2023-03-06T23:41:47.912Z,15.97
2023-03-06T23:44:18.007Z,15.50
2023-03-06T23:46:48.173Z,15.27
2023-03-06T23:49:19.553Z,19.73
2023-03-06T23:51:51.511Z,14.83
2023-03-06T23:54:24.675Z,14.00
2023-03-06T23:56:55.077Z,16.60
2023-03-06T23:59:25.207Z,17.73
